Time;durP1;ratioP1;P1;durP2;ratioP2;P2;SDS_P1;SDS_P2;PMS_P1;PMS_P2;Temp;Humidity;BMP_temperature;BMP_pressure;BME280_temperature;BME280_humidity;BME280_pressure;Samples;Min_cycle;Max_cycle;Signal;HPM_P1;HPM_P2
2021/12/12 00:02:22;;;;;;;0.05;0.05;;;;;;;12.70;78.03;100585.50;7360947;19;20847;-61
2021/12/12 00:04:51;;;;;;;0.10;0.10;;;;;;;12.71;77.75;100588.06;7359147;19;20017;-61
2021/12/12 00:07:21;;;;;;;0.10;0.10;;;;;;;12.70;77.73;100591.59;7352411;19;20022;-61
2021/12/12 00:09:54;;;;;;;0.10;0.10;;;;;;;12.68;77.90;100596.03;7357259;19;20623;-61
2021/12/12 00:12:26;;;;;;;0.10;0.10;;;;;;;12.70;77.97;100594.22;7357029;19;20006;-61
2021/12/12 00:14:52;;;;;;;0.00;0.00;;;;;;;12.66;77.58;100595.22;7359917;19;20025;-61
2021/12/12 00:17:19;;;;;;;0.10;0.10;;;;;;;12.66;77.47;100596.97;7353489;19;20018;-61
2021/12/12 00:19:44;;;;;;;0.00;0.00;;;;;;;12.63;77.46;100592.72;7324839;19;20419;-61
2021/12/12 00:22:14;;;;;;;0.00;0.00;;;;;;;12.65;78.03;100593.50;7342092;19;20570;-60
2021/12/12 00:24:41;;;;;;;0.10;0.10;;;;;;;12.63;77.98;100595.34;7361099;19;20078;-61
2021/12/12 00:27:07;;;;;;;0.10;0.10;;;;;;;12.62;77.59;100598.88;7356439;19;20014;-61
2021/12/12 00:29:33;;;;;;;0.00;0.00;;;;;;;12.61;77.51;100602.38;7361755;19;20060;-61
2021/12/12 00:32:04;;;;;;;0.10;0.10;;;;;;;12.61;77.74;100599.75;7354896;19;20013;-61
2021/12/12 00:34:37;;;;;;;0.08;0.08;;;;;;;12.61;77.59;100591.03;7356651;19;20467;-61
2021/12/12 00:37:06;;;;;;;0.00;0.00;;;;;;;12.58;77.82;100602.50;7354142;19;20015;-61
2021/12/12 00:39:34;;;;;;;0.00;0.00;;;;;;;12.54;77.95;100598.25;7355218;19;20010;-61
2021/12/12 00:42:06;;;;;;;0.10;0.10;;;;;;;12.58;77.79;100599.88;7351362;19;20014;-62
2021/12/12 00:44:33;;;;;;;0.00;0.00;;;;;;;12.54;77.46;100600.88;7359436;19;20014;-62
2021/12/12 00:47:01;;;;;;;0.10;0.10;;;;;;;12.54;77.87;100611.34;7357771;19;20014;-62
2021/12/12 00:49:28;;;;;;;0.10;0.10;;;;;;;12.51;77.87;100606.19;7351453;19;20019;-62
2021/12/12 00:51:55;;;;;;;;;;;;;;;12.55;77.99;100613.06;7360534;19;21121;-62
2021/12/12 00:54:21;;;;;;;0.00;0.00;;;;;;;12.47;77.52;100599.38;7357249;19;20280;-62
2021/12/12 00:56:48;;;;;;;0.10;0.10;;;;;;;12.43;77.43;100597.75;7350253;19;21037;-61
2021/12/12 00:59:14;;;;;;;0.00;0.00;;;;;;;12.49;77.32;100613.25;7355558;19;20066;-62
2021/12/12 01:01:46;;;;;;;0.00;0.00;;;;;;;12.47;77.45;100609.84;7356822;19;20047;-61
2021/12/12 01:04:19;;;;;;;0.10;0.10;;;;;;;12.46;77.48;100614.19;7354087;19;20007;-61
2021/12/12 01:06:46;;;;;;;0.10;0.10;;;;;;;12.43;77.64;100606.47;7357633;19;20006;-61
2021/12/12 01:09:22;;;;;;;0.00;0.00;;;;;;;12.43;77.30;100602.97;7355265;19;20079;-62
2021/12/12 01:11:51;;;;;;;0.10;0.10;;;;;;;12.38;77.86;100594.41;7358225;19;20593;-62
2021/12/12 01:14:21;;;;;;;0.10;0.10;;;;;;;12.40;77.54;100608.31;7351260;19;20010;-61
2021/12/12 01:16:55;;;;;;;0.10;0.10;;;;;;;12.40;77.51;100613.53;7360928;19;20040;-60
2021/12/12 01:19:28;;;;;;;0.00;0.00;;;;;;;12.39;77.77;100609.22;7359333;19;20074;-61
2021/12/12 01:21:57;;;;;;;0.00;0.00;;;;;;;12.39;77.64;100606.59;7357927;19;20043;-61
2021/12/12 01:24:28;;;;;;;0.10;0.10;;;;;;;12.39;77.21;100606.59;7361522;19;20018;-61
2021/12/12 01:26:56;;;;;;;0.10;0.10;;;;;;;12.36;77.46;100606.69;7362418;19;20040;-61
2021/12/12 01:29:22;;;;;;;;;;;;;;;12.39;77.42;100602.22;7365306;19;20102;-61
2021/12/12 01:31:48;;;;;;;0.00;0.00;;;;;;;12.34;77.07;100608.50;7358258;19;19986;-60
2021/12/12 01:34:24;;;;;;;0.00;0.00;;;;;;;12.33;76.97;100597.19;7360586;19;20034;-61
2021/12/12 01:39:27;;;;;;;0.00;0.00;;;;;;;12.26;77.03;100600.03;7363464;19;20034;-61
2021/12/12 01:42:04;;;;;;;0.00;0.00;;;;;;;12.23;77.25;100606.22;7359437;19;20002;-62
2021/12/12 01:44:45;;;;;;;0.00;0.00;;;;;;;12.16;77.01;100605.53;7361517;19;20015;-61
2021/12/12 01:47:21;;;;;;;0.10;0.10;;;;;;;12.15;77.46;100613.44;7359793;19;20342;-61
2021/12/12 01:49:53;;;;;;;0.10;0.10;;;;;;;12.11;77.41;100607.44;7360847;19;20010;-61
2021/12/12 01:52:22;;;;;;;0.10;0.10;;;;;;;12.08;77.35;100614.53;7358358;19;20006;-61
2021/12/12 01:54:51;;;;;;;0.10;0.10;;;;;;;12.06;77.13;100617.19;7359082;19;20003;-61
2021/12/12 01:57:25;;;;;;;0.10;0.10;;;;;;;12.07;77.50;100625.94;7359642;19;20033;-61
2021/12/12 01:59:53;;;;;;;0.10;0.10;;;;;;;12.05;77.14;100632.94;7362332;19;20055;-61
2021/12/12 02:02:27;;;;;;;0.00;0.00;;;;;;;12.07;77.48;100636.41;7359192;19;20441;-62
2021/12/12 02:04:58;;;;;;;0.00;0.00;;;;;;;12.06;77.34;100619.81;7358138;19;20019;-61
2021/12/12 02:07:28;;;;;;;0.00;0.00;;;;;;;12.06;77.82;100635.50;7357621;19;20019;-61
2021/12/12 02:09:57;;;;;;;0.00;0.00;;;;;;;12.03;77.63;100630.38;7356859;19;20014;-61
2021/12/12 02:12:24;;;;;;;0.00;0.00;;;;;;;12.02;77.55;100633.91;7355552;19;20014;-61
2021/12/12 02:14:50;;;;;;;0.00;0.00;;;;;;;12.02;77.23;100633.06;7365281;19;20059;-61
2021/12/12 02:17:28;;;;;;;0.10;0.10;;;;;;;12.09;77.39;100635.44;7364503;19;20015;-61
2021/12/12 02:22:49;;;;;;;0.10;0.10;;;;;;;12.07;77.71;100647.72;7365462;19;20657;-61
2021/12/12 02:36:34;;;;;;;0.00;0.00;;;;;;;12.10;77.14;100668.56;7359368;19;20478;-61
2021/12/12 02:39:05;;;;;;;0.10;0.10;;;;;;;12.11;77.22;100672.88;7360761;19;20156;-61
2021/12/12 02:41:31;;;;;;;0.10;0.10;;;;;;;12.10;77.30;100667.69;7366256;19;20007;-62
2021/12/12 02:43:59;;;;;;;0.10;0.10;;;;;;;12.12;77.25;100661.53;7358828;19;20403;-62
2021/12/12 02:46:32;;;;;;;0.10;0.10;;;;;;;12.14;77.22;100672.81;7363977;19;20017;-62
2021/12/12 02:49:06;;;;;;;0.10;0.10;;;;;;;12.12;77.65;100677.22;7359164;19;20011;-60
2021/12/12 02:51:32;;;;;;;0.10;0.10;;;;;;;12.13;77.34;100680.72;7364531;19;20054;-62
2021/12/12 02:53:59;;;;;;;0.00;0.00;;;;;;;12.14;77.26;100675.41;7361276;19;20022;-62
2021/12/12 02:56:30;;;;;;;0.05;0.05;;;;;;;12.18;77.43;100670.97;7360976;19;20013;-61
2021/12/12 02:58:56;;;;;;;0.00;0.00;;;;;;;12.16;76.93;100684.06;7351072;19;20014;-61
2021/12/12 03:01:31;;;;;;;0.10;0.10;;;;;;;12.17;77.19;100680.56;7365141;19;20105;-62
2021/12/12 03:03:56;;;;;;;0.00;0.00;;;;;;;12.06;77.23;100655.59;7364041;19;20030;-61
2021/12/12 03:06:27;;;;;;;0.00;0.00;;;;;;;12.19;76.80;100668.28;7368427;19;20003;-61
2021/12/12 03:08:59;;;;;;;0.10;0.10;;;;;;;12.20;76.94;100667.38;7366023;19;20018;-61
2021/12/12 03:11:27;;;;;;;0.00;0.00;;;;;;;12.19;77.28;100668.28;7368942;19;20013;-61
2021/12/12 03:13:56;;;;;;;0.00;0.00;;;;;;;12.18;77.20;100663.97;7357426;19;20021;-61
2021/12/12 03:16:22;;;;;;;0.00;0.00;;;;;;;12.17;77.06;100670.09;7365742;19;20026;-61
2021/12/12 03:18:48;;;;;;;0.00;0.00;;;;;;;12.17;77.18;100677.97;7368435;19;20039;-61
2021/12/12 03:21:30;;;;;;;0.00;0.00;;;;;;;12.19;77.05;100668.28;7368328;19;20016;-61
2021/12/12 03:24:06;;;;;;;0.10;0.10;;;;;;;12.17;77.56;100674.47;7369249;19;20014;-61
2021/12/12 03:26:34;;;;;;;0.03;0.03;;;;;;;12.17;77.08;100675.34;7368374;19;20017;-61
2021/12/12 03:29:00;;;;;;;0.10;0.10;;;;;;;12.17;76.94;100672.72;7365351;19;20031;-61
2021/12/12 03:31:36;;;;;;;0.10;0.10;;;;;;;12.09;77.43;100664.22;7366933;19;20038;-61
2021/12/12 03:34:09;;;;;;;0.10;0.10;;;;;;;12.17;77.25;100675.34;7369197;19;20007;-61
2021/12/12 03:36:35;;;;;;;0.10;0.10;;;;;;;12.15;77.46;100677.13;7364502;19;20018;-61
2021/12/12 03:39:09;;;;;;;0.08;0.08;;;;;;;12.15;77.42;100682.38;7368799;19;20013;-61
2021/12/12 03:41:38;;;;;;;0.10;0.10;;;;;;;12.15;77.36;100695.44;7364486;19;20098;-61
2021/12/12 03:44:11;;;;;;;0.10;0.10;;;;;;;12.16;77.03;100678.84;7363020;19;20624;-60
2021/12/12 03:46:38;;;;;;;0.10;0.10;;;;;;;12.14;77.56;100671.94;7367725;19;20070;-61
2021/12/12 03:49:06;;;;;;;0.10;0.10;;;;;;;11.97;77.48;100648.91;7366891;19;20031;-59
2021/12/12 03:51:32;;;;;;;0.10;0.10;;;;;;;12.13;77.34;100678.94;7368517;19;20031;-61
2021/12/12 03:53:58;;;;;;;0.00;0.00;;;;;;;12.11;77.13;100670.25;7364026;19;20024;-61
2021/12/12 03:56:24;;;;;;;0.00;0.00;;;;;;;12.12;77.31;100668.53;7367217;19;20015;-61
2021/12/12 03:58:50;;;;;;;0.10;0.10;;;;;;;12.11;77.25;100667.66;7359942;19;20026;-61
2021/12/12 04:01:32;;;;;;;0.03;0.03;;;;;;;12.15;77.04;100668.41;7366865;19;20006;-61
2021/12/12 04:04:08;;;;;;;0.10;0.10;;;;;;;12.10;77.43;100673.78;7362871;19;20015;-61
2021/12/12 04:06:34;;;;;;;0.00;0.00;;;;;;;12.06;77.57;100677.38;7362311;19;20026;-61
2021/12/12 04:09:00;;;;;;;0.00;0.00;;;;;;;12.08;77.10;100665.13;7363820;19;20018;-62
2021/12/12 04:11:40;;;;;;;0.05;0.05;;;;;;;12.08;77.27;100670.38;7365736;19;20090;-62
2021/12/12 04:14:07;;;;;;;0.00;0.00;;;;;;;12.04;77.50;100678.34;7364660;19;20471;-62
2021/12/12 04:16:34;;;;;;;0.10;0.10;;;;;;;11.97;77.53;100667.22;7363303;19;21794;-61
2021/12/12 04:19:01;;;;;;;;;;;;;;;12.06;77.14;100669.53;7363302;19;20022;-61
2021/12/12 04:21:28;;;;;;;0.10;0.10;;;;;;;11.97;77.71;100651.50;7367814;19;19950;-61
2021/12/12 04:23:55;;;;;;;0.00;0.00;;;;;;;12.00;77.27;100664.50;7364050;19;20013;-61
2021/12/12 04:26:27;;;;;;;0.00;0.00;;;;;;;12.01;77.73;100667.97;7368374;19;20246;-61
2021/12/12 04:29:07;;;;;;;0.00;0.00;;;;;;;12.00;77.32;100661.00;7363456;19;20788;-61
2021/12/12 04:31:35;;;;;;;0.00;0.00;;;;;;;11.95;77.94;100658.53;7367147;19;20336;-61
2021/12/12 04:34:02;;;;;;;0.00;0.00;;;;;;;11.88;77.81;100636.06;7365886;19;20469;-61
2021/12/12 04:36:31;;;;;;;0.00;0.00;;;;;;;11.91;77.77;100651.66;7364994;19;20048;-61
2021/12/12 04:39:09;;;;;;;0.00;0.00;;;;;;;11.89;77.96;100653.47;7364848;19;20025;-61
2021/12/12 04:41:36;;;;;;;0.08;0.08;;;;;;;11.80;78.00;100656.31;7362877;19;20712;-61
2021/12/12 04:44:02;;;;;;;0.00;0.00;;;;;;;11.83;77.63;100664.13;7367543;19;20562;-61
2021/12/12 04:49:55;;;;;;;0.00;0.00;;;;;;;11.83;77.96;100664.13;7368533;19;20017;-62
2021/12/12 04:52:17;;;;;;;0.00;0.00;;;;;;;11.76;78.01;100652.97;7368214;19;20054;-61
2021/12/12 04:54:48;;;;;;;0.10;0.10;;;;;;;11.80;77.92;100656.31;7366097;19;20022;-61
2021/12/12 04:57:44;;;;;;;0.00;0.00;;;;;;;11.78;78.11;100660.75;7362643;19;20017;-61
2021/12/12 05:00:18;;;;;;;0.10;0.10;;;;;;;11.78;78.23;100660.75;7262502;19;2004076;-61
2021/12/12 05:03:12;;;;;;;0.00;0.00;;;;;;;11.79;78.09;100662.47;7364474;19;20021;-61
2021/12/12 05:05:53;;;;;;;0.00;0.00;;;;;;;11.75;77.70;100655.59;7263617;19;2004565;-61
2021/12/12 05:08:34;;;;;;;0.10;0.10;;;;;;;11.70;77.97;100647.88;7365409;19;20014;-61
2021/12/12 05:11:08;;;;;;;0.10;0.10;;;;;;;11.72;77.77;100647.84;7364352;19;20018;-61
2021/12/12 05:13:42;;;;;;;0.00;0.00;;;;;;;11.68;77.99;100644.47;7365974;19;20025;-61
2021/12/12 05:16:16;;;;;;;0.00;0.00;;;;;;;11.67;77.99;100651.44;7367042;19;20010;-61
2021/12/12 05:18:49;;;;;;;0.05;0.05;;;;;;;11.65;78.22;100655.84;7359281;19;20018;-61
2021/12/12 05:21:23;;;;;;;0.00;0.00;;;;;;;11.64;78.07;100664.59;7361481;19;20007;-61
2021/12/12 05:23:51;;;;;;;0.00;0.00;;;;;;;11.61;77.79;100659.47;7362186;19;20013;-61
2021/12/12 05:26:20;;;;;;;;;;;;;;;11.63;77.95;100657.66;7365075;19;20829;-61
2021/12/12 05:28:51;;;;;;;0.00;0.00;;;;;;;11.59;77.95;100655.16;7361161;19;19914;-61
2021/12/12 05:31:20;;;;;;;0.05;0.05;;;;;;;11.58;78.23;100654.31;7364590;19;20078;-61
2021/12/12 05:33:48;;;;;;;0.03;0.03;;;;;;;11.54;78.22;100651.81;7365582;19;20027;-61
2021/12/12 05:36:15;;;;;;;0.00;0.00;;;;;;;11.51;78.51;100651.94;7362953;19;20018;-61
2021/12/12 05:38:41;;;;;;;0.00;0.00;;;;;;;11.53;78.61;100665.81;7365785;19;20098;-61
2021/12/12 05:41:07;;;;;;;0.00;0.00;;;;;;;11.53;78.22;100663.19;7364769;19;20006;-62
2021/12/12 05:43:34;;;;;;;0.00;0.00;;;;;;;11.54;78.56;100663.13;7364566;19;20002;-61
2021/12/12 05:46:01;;;;;;;0.05;0.05;;;;;;;11.54;78.06;100663.13;7364607;19;20401;-61
2021/12/12 05:48:28;;;;;;;0.00;0.00;;;;;;;11.48;78.39;100652.84;7365248;19;20010;-61
2021/12/12 05:50:53;;;;;;;0.00;0.00;;;;;;;11.55;78.72;100670.06;7365588;19;20016;-61
2021/12/12 05:53:20;;;;;;;0.10;0.10;;;;;;;11.57;78.68;100668.28;7363913;19;20371;-61
2021/12/12 05:55:47;;;;;;;0.00;0.00;;;;;;;11.59;78.47;100666.47;7365021;19;20410;-62
2021/12/12 05:58:15;;;;;;;0.00;0.00;;;;;;;11.62;78.53;100671.63;7361593;19;20006;-61
2021/12/12 06:00:45;;;;;;;0.10;0.10;;;;;;;11.63;78.25;100673.34;7361106;19;20014;-61
2021/12/12 06:03:14;;;;;;;0.00;0.00;;;;;;;11.64;78.16;100680.28;7359622;19;20018;-61
2021/12/12 06:05:40;;;;;;;0.10;0.10;;;;;;;11.64;77.78;100675.06;7368228;19;22659;-61
2021/12/12 06:08:06;;;;;;;0.00;0.00;;;;;;;11.64;78.01;100675.06;7359777;19;20009;-61
2021/12/12 06:10:34;;;;;;;0.10;0.10;;;;;;;11.60;77.49;100668.19;7363835;19;20519;-61
2021/12/12 06:13:02;;;;;;;0.10;0.10;;;;;;;11.64;77.67;100677.69;7360478;19;20119;-62
2021/12/12 06:15:30;;;;;;;;;;;;;;;11.68;77.55;100687.16;7366412;19;20021;-61
2021/12/12 06:17:56;;;;;;;0.10;0.10;;;;;;;11.61;77.47;100680.41;7365574;19;19922;-61
2021/12/12 06:20:22;;;;;;;0.10;0.10;;;;;;;11.59;77.50;100681.31;7360493;19;20103;-61
2021/12/12 06:22:49;;;;;;;0.10;0.10;;;;;;;11.60;77.62;100678.66;7361619;19;20026;-61
2021/12/12 06:25:15;;;;;;;0.00;0.00;;;;;;;11.58;77.90;100684.84;7364312;19;20081;-61
2021/12/12 06:27:40;;;;;;;0.00;0.00;;;;;;;11.57;77.77;100684.00;7361023;19;20095;-61
2021/12/12 06:30:12;;;;;;;0.10;0.10;;;;;;;11.59;77.63;100687.41;7366200;19;20364;-61
2021/12/12 06:32:38;;;;;;;0.00;0.00;;;;;;;11.56;77.61;100694.50;7361729;19;20070;-61
2021/12/12 06:35:06;;;;;;;0.00;0.00;;;;;;;11.57;77.76;100694.44;7359898;19;20023;-61
2021/12/12 06:37:32;;;;;;;0.10;0.10;;;;;;;11.44;78.11;100672.13;7360533;19;20021;-61
2021/12/12 06:39:58;;;;;;;0.10;0.10;;;;;;;11.56;77.79;100703.19;7370761;19;20089;-61
2021/12/12 06:42:24;;;;;;;0.00;0.00;;;;;;;11.57;77.94;100688.38;7372269;19;20052;-61
2021/12/12 06:44:50;;;;;;;0.10;0.10;;;;;;;11.57;78.01;100689.22;7365924;19;20090;-61
2021/12/12 06:47:17;;;;;;;0.10;0.10;;;;;;;11.58;77.63;100683.09;7371077;19;20010;-61
2021/12/12 06:49:44;;;;;;;0.03;0.03;;;;;;;11.58;78.11;100684.84;7368591;19;20063;-61
2021/12/12 06:52:14;;;;;;;0.00;0.00;;;;;;;11.59;78.03;100682.19;7371088;19;20006;-61
2021/12/12 06:54:40;;;;;;;0.10;0.10;;;;;;;11.60;77.82;100696.09;7366574;19;20010;-61
2021/12/12 06:57:09;;;;;;;0.10;0.10;;;;;;;11.60;77.79;100691.72;7369856;19;20021;-61
2021/12/12 06:59:37;;;;;;;0.08;0.08;;;;;;;11.60;78.08;100694.34;7363517;19;20014;-61
2021/12/12 07:02:06;;;;;;;0.00;0.00;;;;;;;11.53;77.97;100679.72;7371720;19;20019;-61
2021/12/12 07:04:34;;;;;;;0.00;0.00;;;;;;;11.58;77.87;100695.31;7370713;19;20018;-61
2021/12/12 07:07:02;;;;;;;0.10;0.10;;;;;;;11.57;77.75;100689.22;7370066;19;20023;-61
2021/12/12 07:09:35;;;;;;;0.00;0.00;;;;;;;11.55;77.85;100675.31;7368560;19;20589;-61
2021/12/12 07:12:04;;;;;;;0.00;0.00;;;;;;;11.53;78.14;100677.13;7363663;19;20014;-61
2021/12/12 07:14:31;;;;;;;0.00;0.00;;;;;;;11.42;78.37;100661.72;7369413;19;20023;-61
2021/12/12 07:16:57;;;;;;;0.00;0.00;;;;;;;11.51;78.12;100676.31;7363254;19;20006;-61
2021/12/12 07:19:23;;;;;;;0.08;0.08;;;;;;;11.52;78.26;100669.31;7365822;19;20016;-61
2021/12/12 07:21:49;;;;;;;0.00;0.00;;;;;;;11.52;78.62;100669.31;7370222;19;20402;-61
2021/12/12 07:24:17;;;;;;;0.10;0.10;;;;;;;11.53;78.56;100671.88;7367465;19;20007;-62
2021/12/12 07:26:43;;;;;;;0.10;0.10;;;;;;;11.52;78.39;100670.19;7364806;19;20041;-62
2021/12/12 07:29:09;;;;;;;0.03;0.03;;;;;;;11.54;78.44;100668.38;7367331;19;20006;-62
2021/12/12 07:31:37;;;;;;;0.00;0.00;;;;;;;11.53;78.76;100663.19;7362785;19;20013;-61
2021/12/12 07:34:05;;;;;;;;;;;;;;;11.59;78.02;100665.63;7369675;19;20011;-60
2021/12/12 07:36:32;;;;;;;;;;;;;;;11.60;78.05;100668.19;7366382;19;19915;-62
2021/12/12 07:39:01;;;;;;;0.00;0.00;;;;;;;11.58;78.20;100672.63;7355835;19;19923;-62
2021/12/12 07:41:30;;;;;;;0.00;0.00;;;;;;;11.56;78.27;100671.81;7349445;19;20562;-61
2021/12/12 07:43:58;;;;;;;0.00;0.00;;;;;;;11.53;78.58;100669.28;7364543;19;20718;-61
2021/12/12 07:46:24;;;;;;;0.00;0.00;;;;;;;11.52;78.49;100670.19;7367376;19;20026;-61
2021/12/12 07:48:51;;;;;;;0.10;0.10;;;;;;;11.53;78.55;100671.88;7362629;19;20118;-61
2021/12/12 07:51:18;;;;;;;0.00;0.00;;;;;;;11.52;78.65;100670.19;7367861;19;20010;-61
2021/12/12 07:53:44;;;;;;;0.00;0.00;;;;;;;11.52;78.88;100670.19;7361915;19;20006;-61
2021/12/12 07:56:10;;;;;;;0.10;0.10;;;;;;;11.53;79.35;100666.66;7369974;19;20021;-62
2021/12/12 07:58:37;;;;;;;0.00;0.00;;;;;;;11.45;79.19;100658.16;7359314;19;20018;-61
2021/12/12 08:01:04;;;;;;;0.00;0.00;;;;;;;11.55;78.96;100664.84;7368917;19;20351;-61
2021/12/12 08:03:33;;;;;;;0.10;0.10;;;;;;;11.55;78.96;100664.84;7361159;19;20453;-61
2021/12/12 08:06:01;;;;;;;0.00;0.00;;;;;;;11.56;78.81;100663.97;7367652;19;20014;-61
2021/12/12 08:08:28;;;;;;;0.00;0.00;;;;;;;11.57;79.04;100663.06;7362026;19;20038;-61
2021/12/12 08:10:56;;;;;;;0.00;0.00;;;;;;;11.58;78.93;100659.53;7365151;19;20034;-61
2021/12/12 08:13:22;;;;;;;0.00;0.00;;;;;;;11.58;78.93;100670.00;7361561;19;20010;-62
2021/12/12 08:15:48;;;;;;;0.10;0.10;;;;;;;11.58;79.38;100658.69;7366113;19;20035;-62
2021/12/12 08:18:16;;;;;;;0.00;0.00;;;;;;;11.60;79.30;100662.09;7359087;19;20014;-61
2021/12/12 08:20:44;;;;;;;0.00;0.00;;;;;;;11.61;79.21;100662.09;7365294;19;20007;-62
2021/12/12 08:23:10;;;;;;;0.00;0.00;;;;;;;11.62;79.66;100670.78;7360179;19;20459;-62
2021/12/12 08:25:36;;;;;;;0.10;0.10;;;;;;;11.64;79.12;100658.50;7365172;19;20098;-61
2021/12/12 08:28:04;;;;;;;0.10;0.10;;;;;;;11.66;78.94;100662.81;7364567;19;20007;-61
2021/12/12 08:30:31;;;;;;;0.00;0.00;;;;;;;11.67;79.01;100655.81;7367182;19;20018;-61
2021/12/12 08:32:58;;;;;;;0.10;0.10;;;;;;;11.67;79.11;100661.06;7356198;19;20043;-62
2021/12/12 08:35:26;;;;;;;0.10;0.10;;;;;;;11.68;79.52;100658.38;7364210;19;20493;-62
2021/12/12 08:37:52;;;;;;;0.00;0.00;;;;;;;11.68;79.17;100661.00;7365130;19;20539;-61
2021/12/12 08:40:25;;;;;;;0.05;0.05;;;;;;;11.72;78.98;100661.78;7365585;19;20007;-62
2021/12/12 08:42:52;;;;;;;0.00;0.00;;;;;;;11.71;79.06;100654.84;7364159;19;20033;-62
2021/12/12 08:45:23;;;;;;;0.00;0.00;;;;;;;11.73;79.26;100657.41;7358135;19;20022;-61
2021/12/12 08:47:50;;;;;;;0.10;0.10;;;;;;;11.72;79.32;100660.94;7364912;19;20014;-62
2021/12/12 08:50:23;;;;;;;0.00;0.00;;;;;;;11.74;79.19;100659.13;7356122;19;20023;-62
2021/12/12 08:52:49;;;;;;;0.03;0.03;;;;;;;11.72;78.95;100650.47;7362107;19;20018;-61
2021/12/12 08:55:34;;;;;;;0.00;0.00;;;;;;;11.75;79.19;100651.22;7365615;19;20010;-62
2021/12/12 08:58:14;;;;;;;0.00;0.00;;;;;;;11.72;79.14;100642.63;7367194;19;20066;-62
2021/12/12 09:00:48;;;;;;;0.00;0.00;;;;;;;11.74;79.48;100651.28;7360948;19;20021;-62
2021/12/12 09:03:23;;;;;;;0.10;0.10;;;;;;;11.72;79.40;100645.22;7362085;19;20003;-61
2021/12/12 09:05:49;;;;;;;0.10;0.10;;;;;;;11.70;79.58;100645.25;7362411;19;21297;-62
2021/12/12 09:08:44;;;;;;;0.10;0.10;;;;;;;11.67;78.72;100622.69;7362918;19;20006;-62
2021/12/12 09:11:34;;;;;;;0.00;0.00;;;;;;;11.73;78.93;100623.41;7262501;19;2004201;-62
2021/12/12 09:14:10;;;;;;;0.10;0.10;;;;;;;11.73;79.27;100636.47;7366422;19;20010;-62
2021/12/12 09:16:46;;;;;;;0.10;0.10;;;;;;;11.72;79.53;100634.78;7355635;19;20056;-62
2021/12/12 09:19:18;;;;;;;0.00;0.00;;;;;;;11.67;79.13;100637.50;7359772;19;20044;-62
2021/12/12 09:21:52;;;;;;;0.10;0.10;;;;;;;11.72;79.25;100643.47;7358682;19;20018;-62
2021/12/12 09:24:18;;;;;;;0.00;0.00;;;;;;;11.70;79.28;100643.50;7365883;19;20050;-62
2021/12/12 09:26:48;;;;;;;0.00;0.00;;;;;;;11.71;79.37;100639.16;7360310;19;20115;-62
2021/12/12 09:29:26;;;;;;;0.10;0.10;;;;;;;11.70;79.32;100633.03;7365645;19;20074;-61
2021/12/12 09:32:12;;;;;;;0.10;0.10;;;;;;;11.74;79.34;100644.28;7360381;19;20014;-62
2021/12/12 09:34:49;;;;;;;0.10;0.10;;;;;;;11.74;79.96;100632.97;7360839;19;19998;-61
2021/12/12 09:37:27;;;;;;;0.10;0.10;;;;;;;11.76;79.54;100636.38;7361164;19;20002;-60
2021/12/12 09:40:16;;;;;;;0.00;0.00;;;;;;;11.78;79.76;100635.44;7360216;19;20006;-61
2021/12/12 09:43:03;;;;;;;0.00;0.00;;;;;;;11.81;79.46;100640.59;7355932;19;21151;-60
2021/12/12 09:45:48;;;;;;;0.03;0.03;;;;;;;11.83;79.70;100623.13;7358743;19;20034;-60
2021/12/12 09:51:43;;;;;;;0.00;0.00;;;;;;;11.89;79.40;100622.09;7255399;19;2004703;-60
2021/12/12 09:54:23;;;;;;;0.00;0.00;;;;;;;11.89;79.41;100617.69;7362071;19;20006;-61
2021/12/12 09:57:04;;;;;;;0.10;0.10;;;;;;;11.90;80.11;100622.03;7361723;19;20042;-60
2021/12/12 09:59:58;;;;;;;0.10;0.10;;;;;;;11.94;80.10;100609.72;7359942;19;20010;-60
2021/12/12 10:02:35;;;;;;;0.10;0.10;;;;;;;11.97;79.75;100622.72;7252990;19;2004423;-60
2021/12/12 10:05:30;;;;;;;0.10;0.10;;;;;;;12.01;79.88;100598.16;7361482;19;20014;-62
2021/12/12 10:07:58;;;;;;;0.00;0.00;;;;;;;12.02;80.04;100593.81;7253431;19;2004151;-61
2021/12/12 10:10:31;;;;;;;0.10;0.10;;;;;;;12.08;80.29;100596.22;7361081;19;20006;-61
2021/12/12 10:13:23;;;;;;;0.10;0.10;;;;;;;12.10;80.14;100589.16;7361458;19;20010;-62
2021/12/12 10:15:56;;;;;;;0.10;0.10;;;;;;;12.19;79.96;100594.13;7259720;19;2004477;-61
2021/12/12 10:18:44;;;;;;;0.10;0.10;;;;;;;12.15;80.16;100588.13;7359565;19;20014;-61
2021/12/12 10:21:19;;;;;;;0.00;0.00;;;;;;;12.34;80.31;100603.28;7358456;19;20031;-61
2021/12/12 10:24:03;;;;;;;0.00;0.00;;;;;;;12.37;80.18;100601.41;7344432;19;21041;-61
2021/12/12 10:26:34;;;;;;;0.00;0.00;;;;;;;12.45;80.14;100591.53;7364865;19;20553;-60
2021/12/12 10:29:14;;;;;;;0.10;0.10;;;;;;;12.56;80.56;100593.81;7362132;19;20010;-60
2021/12/12 10:31:47;;;;;;;0.00;0.00;;;;;;;12.63;80.31;100595.34;7360438;19;20011;-60
2021/12/12 10:34:20;;;;;;;0.00;0.00;;;;;;;12.70;80.13;100596.84;7356116;19;20499;-61
2021/12/12 10:37:14;;;;;;;0.10;0.10;;;;;;;12.83;79.71;100585.97;7351896;19;20095;-61
2021/12/12 10:39:44;;;;;;;0.10;0.10;;;;;;;12.88;80.34;100578.81;7258872;19;2004246;-60
2021/12/12 10:42:14;;;;;;;0.10;0.10;;;;;;;12.95;80.42;100575.03;7362124;19;20529;-61
2021/12/12 10:44:47;;;;;;;0.10;0.10;;;;;;;13.03;80.34;100573.03;7353088;19;20116;-61
2021/12/12 10:47:28;;;;;;;0.10;0.10;;;;;;;13.13;79.94;100574.41;7360334;19;20018;-61
2021/12/12 10:50:37;;;;;;;0.00;0.00;;;;;;;13.24;79.79;100579.31;7338097;19;20011;-61
2021/12/12 10:53:27;;;;;;;0.03;0.03;;;;;;;13.35;79.54;100579.78;7247982;19;2004407;-61
2021/12/12 10:56:07;;;;;;;0.08;0.08;;;;;;;13.44;79.53;100573.34;7352658;19;21855;-61
2021/12/12 10:58:43;;;;;;;0.10;0.10;;;;;;;13.50;79.30;100581.84;7357771;19;20010;-61
2021/12/12 11:01:14;;;;;;;0.10;0.10;;;;;;;13.55;79.62;100576.44;7358592;19;20086;-61
2021/12/12 11:03:55;;;;;;;0.03;0.03;;;;;;;13.66;79.20;100574.25;7345211;19;20011;-60
2021/12/12 11:06:35;;;;;;;0.00;0.00;;;;;;;13.74;79.07;100572.22;7349835;19;21001;-61
2021/12/12 11:09:24;;;;;;;0.10;0.10;;;;;;;13.82;78.81;100577.16;7352209;19;20114;-61
2021/12/12 11:12:07;;;;;;;0.03;0.03;;;;;;;13.88;78.57;100562.94;7351516;19;20011;-60
2021/12/12 11:14:47;;;;;;;0.10;0.10;;;;;;;13.95;78.42;100559.19;7353589;19;20010;-61
2021/12/12 11:17:19;;;;;;;0.10;0.10;;;;;;;14.01;78.17;100562.41;7353517;19;20738;-61
2021/12/12 11:19:51;;;;;;;0.00;0.00;;;;;;;14.07;78.00;100563.09;7358105;19;20010;-61
2021/12/12 11:22:26;;;;;;;0.10;0.10;;;;;;;14.11;78.17;100565.53;7360515;19;20021;-61
2021/12/12 11:25:03;;;;;;;0.10;0.10;;;;;;;14.15;77.74;100564.50;7362960;19;20006;-61
2021/12/12 11:27:42;;;;;;;0.10;0.10;;;;;;;14.19;77.72;100562.59;7364463;19;20019;-61
2021/12/12 11:30:21;;;;;;;0.10;0.10;;;;;;;14.19;77.71;100552.97;7365139;19;20011;-61
2021/12/12 11:32:50;;;;;;;0.10;0.10;;;;;;;14.26;77.43;100554.41;7364056;19;20010;-60
2021/12/12 11:35:18;;;;;;;0.00;0.00;;;;;;;14.27;77.08;100550.88;7357264;19;20425;-60
2021/12/12 11:38:12;;;;;;;0.10;0.10;;;;;;;14.30;77.36;100544.66;7365328;19;20015;-61
2021/12/12 11:40:53;;;;;;;0.00;0.00;;;;;;;14.32;76.93;100539.31;7263334;19;2004222;-61
2021/12/12 11:43:25;;;;;;;0.10;0.10;;;;;;;14.32;77.02;100539.31;7364153;19;20509;-60
2021/12/12 11:46:00;;;;;;;0.00;0.00;;;;;;;14.36;76.96;100533.03;7364666;19;20498;-60
2021/12/12 11:48:55;;;;;;;0.10;0.10;;;;;;;14.40;77.03;100546.00;7362017;19;20037;-62
2021/12/12 11:51:39;;;;;;;0.10;0.10;;;;;;;14.40;77.30;100534.63;7260215;19;2004388;-62
2021/12/12 11:54:23;;;;;;;0.10;0.10;;;;;;;14.45;77.07;100528.25;7364050;19;20015;-62
2021/12/12 11:56:53;;;;;;;0.10;0.10;;;;;;;14.48;76.47;100527.28;7357592;19;20082;-61
2021/12/12 11:59:22;;;;;;;0.10;0.10;;;;;;;14.49;76.62;100529.00;7358892;19;20011;-61
2021/12/12 12:01:51;;;;;;;0.10;0.10;;;;;;;14.51;76.46;100519.28;7361344;19;20010;-62
2021/12/12 12:04:31;;;;;;;0.10;0.10;;;;;;;14.56;76.84;100522.59;7363725;19;20775;-61
2021/12/12 12:07:24;;;;;;;0.10;0.10;;;;;;;14.59;76.56;100518.97;7363244;19;20082;-61
2021/12/12 12:09:55;;;;;;;0.10;0.10;;;;;;;14.60;76.22;100524.16;7264529;19;2004423;-62
2021/12/12 12:13:12;;;;;;;0.10;0.10;;;;;;;14.66;76.42;100513.41;7356185;19;20015;-62